Susan Ann — WCY5700 — position and weather

sailwx.info

Track history (hours):
 
Tides and Currents Weather Stations Pressure Air Temp Water Temp Dewpoint Dewpoint Depression Visibility Wind Speed Wind Dir Waves Ship Positions

Susan Ann

Owner: CROSS SOUND FERRY SERVICES INC, NEW LONDON, CT. More information available from US FCC via Universal Licensing System and Coast Guard Vessel Documentation Center.

Last reported at 2017-Nov-18 13:01 UTC. Time now 2017-Nov-18 14:20 UTC.
Position N 41°17' W 072°06'.

Length 72 m; draft 4 m.

Type: Passenger vessel. MMSI: 367354350.

Date/timePositionNaut miles runAvg speedWind from/ knotsBaromVisibWave heightAir tempDewpointWater temp
2017-Nov-18 13:01N 41°17' W 072°06'212.6
2017-Nov-18 12:52N 41°15' W 072°08'511.8
2017-Nov-18 12:29N 41°12' W 072°12'3 0.3
2017-Nov-18 01:10N 41°09' W 072°13'212.0
2017-Nov-18 00:59N 41°12' W 072°14'2 0.5
2017-Nov-17 21:16N 41°10' W 072°13'1 0.1
2017-Nov-17 13:08N 41°10' W 072°13'212.8
2017-Nov-17 12:59N 41°12' W 072°13'7 0.6
2017-Nov-17 00:57N 41°17' W 072°06'612.4
2017-Nov-17 00:28N 41°12' W 072°11'3 2.5
2017-Nov-16 23:10N 41°10' W 072°13'210.3
2017-Nov-16 23:00N 41°11' W 072°13'6 2.8
2017-Nov-16 20:47N 41°15' W 072°07'414.2
2017-Nov-16 20:30N 41°13' W 072°11'3 2.1
2017-Nov-16 19:08N 41°11' W 072°13'211.9
2017-Nov-16 19:00N 41°12' W 072°12'5 2.3
2017-Nov-16 16:42N 41°15' W 072°07'315.1
2017-Nov-16 16:30N 41°13' W 072°10'4 2.5
2017-Nov-16 15:05N 41°11' W 072°13'111.7
2017-Nov-16 14:58N 41°12' W 072°12'7 3.3
2017-Nov-16 12:54N 41°17' W 072°06'512.4
2017-Nov-16 12:30N 41°13' W 072°10'4 0.4
2017-Nov-16 01:03N 41°10' W 072°13'111.5
2017-Nov-16 01:00N 41°10' W 072°13'9 4.2
2017-Nov-15 22:57N 41°17' W 072°06'9 5.0
2017-Nov-15 21:10N 41°10' W 072°13'210.4
2017-Nov-15 20:56N 41°12' W 072°12'5 2.4
2017-Nov-15 18:42N 41°15' W 072°07'314.9
2017-Nov-15 18:30N 41°13' W 072°10'4 2.9
2017-Nov-15 17:08N 41°11' W 072°13'211.6
2017-Nov-15 16:58N 41°12' W 072°12'7 3.2
2017-Nov-15 14:53N 41°17' W 072°06'613.7
2017-Nov-15 14:27N 41°12' W 072°11'6 0.4
2017-Nov-15 00:54N 41°17' W 072°06'612.8
2017-Nov-15 00:24N 41°12' W 072°12'3 2.8
2017-Nov-14 23:10N 41°09' W 072°14'210.0
2017-Nov-14 23:00N 41°11' W 072°14'8 4.0
2017-Nov-14 20:57N 41°16' W 072°06'612.5
2017-Nov-14 20:30N 41°12' W 072°11'3 2.3
2017-Nov-14 19:08N 41°10' W 072°13'211.4
2017-Nov-14 18:58N 41°12' W 072°13'6 2.8
2017-Nov-14 16:51N 41°15' W 072°07'515.2
2017-Nov-14 16:30N 41°12' W 072°12'3 2.1
2017-Nov-14 15:13N 41°09' W 072°13'310.8
2017-Nov-14 14:59N 41°12' W 072°12'7 3.3
2017-Nov-14 12:55N 41°17' W 072°06'512.4
2017-Nov-14 12:29N 41°13' W 072°10'4 0.3
2017-Nov-14 01:11N 41°09' W 072°13'311.1
2017-Nov-14 00:54N 41°12' W 072°11'5 2.8
2017-Nov-13 22:58N 41°16' W 072°07'612.0
2017-Nov-13 22:30N 41°12' W 072°12'5 0.2
2017-Nov-13 00:47N 41°16' W 072°06'414.1
2017-Nov-13 00:30N 41°13' W 072°10'4 3.5
2017-Nov-12 23:16N 41°09' W 072°13'311.5
2017-Nov-12 23:00N 41°12' W 072°12'7 3.3
2017-Nov-12 20:58N 41°17' W 072°06'612.3
2017-Nov-12 20:29N 41°12' W 072°11'3 2.3
2017-Nov-12 19:08N 41°10' W 072°13'211.3
2017-Nov-12 19:00N 41°11' W 072°13'713.9
2017-Nov-12 18:29N 41°17' W 072°07'1 0.6
2017-Nov-12 16:54N 41°17' W 072°05'614.0
2017-Nov-12 16:29N 41°13' W 072°11'4 3.0
2017-Nov-12 15:17N 41°09' W 072°13'410.9
2017-Nov-12 14:53N 41°13' W 072°10'511.9
2017-Nov-12 14:30N 41°16' W 072°06'0 0.1
2017-Nov-12 12:55N 41°16' W 072°06'614.4
2017-Nov-12 12:30N 41°12' W 072°11'4 0.3
2017-Nov-12 01:17N 41°09' W 072°14'311.4
2017-Nov-12 01:00N 41°12' W 072°12'6 3.1
2017-Nov-11 22:54N 41°16' W 072°06'613.4
2017-Nov-11 22:27N 41°12' W 072°12'2 1.0
2017-Nov-11 20:48N 41°14' W 072°11'4 2.5
2017-Nov-11 18:59N 41°17' W 072°06'612.2
2017-Nov-11 18:28N 41°12' W 072°12'2 1.6
2017-Nov-11 17:04N 41°10' W 072°14'211.9
2017-Nov-11 16:56N 41°12' W 072°12'6 2.9
2017-Nov-11 14:50N 41°16' W 072°06'514.4
2017-Nov-11 14:28N 41°12' W 072°11'3 2.3
2017-Nov-11 13:11N 41°09' W 072°13'211.9
2017-Nov-11 13:00N 41°12' W 072°12'712.1
2017-Nov-11 12:26N 41°17' W 072°06'2 0.2
2017-Nov-11 00:40N 41°15' W 072°08'214.7
2017-Nov-11 00:30N 41°13' W 072°10'5 3.9
2017-Nov-10 23:18N 41°09' W 072°13'310.3
2017-Nov-10 22:59N 41°13' W 072°12'3 0.7
2017-Nov-10 19:08N 41°11' W 072°14'414.3
2017-Nov-10 18:51N 41°13' W 072°10'4 2.2
2017-Nov-10 16:55N 41°17' W 072°07'8 5.3
2017-Nov-10 15:20N 41°10' W 072°13'410.6
2017-Nov-10 14:56N 41°13' W 072°10'3 1.5
2017-Nov-10 12:43N 41°15' W 072°07'314.6
2017-Nov-10 12:30N 41°13' W 072°10'4 0.3
2017-Nov-10 01:06N 41°11' W 072°13'311.6
2017-Nov-10 00:51N 41°13' W 072°11'5 2.4
2017-Nov-09 22:49N 41°16' W 072°06'514.9
2017-Nov-09 22:30N 41°13' W 072°11'4 3.0
2017-Nov-09 21:13N 41°10' W 072°13'210.5
2017-Nov-09 20:59N 41°12' W 072°12'4 1.9
2017-Nov-09 18:45N 41°15' W 072°08'6 3.6
2017-Nov-09 17:03N 41°10' W 072°14'112.9
2017-Nov-09 17:00N 41°11' W 072°14'8 3.7
2017-Nov-09 14:51N 41°17' W 072°06'612.9
2017-Nov-09 14:23N 41°12' W 072°12'3 2.4
2017-Nov-09 13:11N 41°09' W 072°13'311.2
2017-Nov-09 12:57N 41°12' W 072°12'612.5
2017-Nov-09 12:30N 41°16' W 072°07'  
Track history (hours):
 
Tides and Currents Weather Stations Pressure Air Temp Water Temp Dewpoint Dewpoint Depression Visibility Wind Speed Wind Dir Waves Ship Positions

Susan Ann

Owner: CROSS SOUND FERRY SERVICES INC, NEW LONDON, CT. More information available from US FCC via Universal Licensing System and Coast Guard Vessel Documentation Center.

Last reported at 2017-Nov-18 13:01 UTC. Time now 2017-Nov-18 14:20 UTC.
Position N 41°17' W 072°06'.

Length 72 m; draft 4 m.

Type: Passenger vessel. MMSI: 367354350.

Date/timePositionNaut miles runAvg speedWind from/ knotsBaromVisibWave heightAir tempDewpointWater temp
2017-Nov-18 13:01N 41°17' W 072°06'212.6
2017-Nov-18 12:52N 41°15' W 072°08'511.8
2017-Nov-18 12:29N 41°12' W 072°12'3 0.3
2017-Nov-18 01:10N 41°09' W 072°13'212.0
2017-Nov-18 00:59N 41°12' W 072°14'2 0.5
2017-Nov-17 21:16N 41°10' W 072°13'1 0.1
2017-Nov-17 13:08N 41°10' W 072°13'212.8
2017-Nov-17 12:59N 41°12' W 072°13'7 0.6
2017-Nov-17 00:57N 41°17' W 072°06'612.4
2017-Nov-17 00:28N 41°12' W 072°11'3 2.5
2017-Nov-16 23:10N 41°10' W 072°13'210.3
2017-Nov-16 23:00N 41°11' W 072°13'6 2.8
2017-Nov-16 20:47N 41°15' W 072°07'414.2
2017-Nov-16 20:30N 41°13' W 072°11'3 2.1
2017-Nov-16 19:08N 41°11' W 072°13'211.9
2017-Nov-16 19:00N 41°12' W 072°12'5 2.3
2017-Nov-16 16:42N 41°15' W 072°07'315.1
2017-Nov-16 16:30N 41°13' W 072°10'4 2.5
2017-Nov-16 15:05N 41°11' W 072°13'111.7
2017-Nov-16 14:58N 41°12' W 072°12'7 3.3
2017-Nov-16 12:54N 41°17' W 072°06'512.4
2017-Nov-16 12:30N 41°13' W 072°10'4 0.4
2017-Nov-16 01:03N 41°10' W 072°13'111.5
2017-Nov-16 01:00N 41°10' W 072°13'9 4.2
2017-Nov-15 22:57N 41°17' W 072°06'9 5.0
2017-Nov-15 21:10N 41°10' W 072°13'210.4
2017-Nov-15 20:56N 41°12' W 072°12'5 2.4
2017-Nov-15 18:42N 41°15' W 072°07'314.9
2017-Nov-15 18:30N 41°13' W 072°10'4 2.9
2017-Nov-15 17:08N 41°11' W 072°13'211.6
2017-Nov-15 16:58N 41°12' W 072°12'7 3.2
2017-Nov-15 14:53N 41°17' W 072°06'613.7
2017-Nov-15 14:27N 41°12' W 072°11'6 0.4
2017-Nov-15 00:54N 41°17' W 072°06'612.8
2017-Nov-15 00:24N 41°12' W 072°12'3 2.8
2017-Nov-14 23:10N 41°09' W 072°14'210.0
2017-Nov-14 23:00N 41°11' W 072°14'8 4.0
2017-Nov-14 20:57N 41°16' W 072°06'612.5
2017-Nov-14 20:30N 41°12' W 072°11'3 2.3
2017-Nov-14 19:08N 41°10' W 072°13'211.4
2017-Nov-14 18:58N 41°12' W 072°13'6 2.8
2017-Nov-14 16:51N 41°15' W 072°07'515.2
2017-Nov-14 16:30N 41°12' W 072°12'3 2.1
2017-Nov-14 15:13N 41°09' W 072°13'310.8
2017-Nov-14 14:59N 41°12' W 072°12'7 3.3
2017-Nov-14 12:55N 41°17' W 072°06'512.4
2017-Nov-14 12:29N 41°13' W 072°10'4 0.3
2017-Nov-14 01:11N 41°09' W 072°13'311.1
2017-Nov-14 00:54N 41°12' W 072°11'5 2.8
2017-Nov-13 22:58N 41°16' W 072°07'612.0
2017-Nov-13 22:30N 41°12' W 072°12'5 0.2
2017-Nov-13 00:47N 41°16' W 072°06'414.1
2017-Nov-13 00:30N 41°13' W 072°10'4 3.5
2017-Nov-12 23:16N 41°09' W 072°13'311.5
2017-Nov-12 23:00N 41°12' W 072°12'7 3.3
2017-Nov-12 20:58N 41°17' W 072°06'612.3
2017-Nov-12 20:29N 41°12' W 072°11'3 2.3
2017-Nov-12 19:08N 41°10' W 072°13'211.3
2017-Nov-12 19:00N 41°11' W 072°13'713.9
2017-Nov-12 18:29N 41°17' W 072°07'1 0.6
2017-Nov-12 16:54N 41°17' W 072°05'614.0
2017-Nov-12 16:29N 41°13' W 072°11'4 3.0
2017-Nov-12 15:17N 41°09' W 072°13'410.9
2017-Nov-12 14:53N 41°13' W 072°10'511.9
2017-Nov-12 14:30N 41°16' W 072°06'0 0.1
2017-Nov-12 12:55N 41°16' W 072°06'614.4
2017-Nov-12 12:30N 41°12' W 072°11'4 0.3
2017-Nov-12 01:17N 41°09' W 072°14'311.4
2017-Nov-12 01:00N 41°12' W 072°12'6 3.1
2017-Nov-11 22:54N 41°16' W 072°06'613.4
2017-Nov-11 22:27N 41°12' W 072°12'2 1.0
2017-Nov-11 20:48N 41°14' W 072°11'4 2.5
2017-Nov-11 18:59N 41°17' W 072°06'612.2
2017-Nov-11 18:28N 41°12' W 072°12'2 1.6
2017-Nov-11 17:04N 41°10' W 072°14'211.9
2017-Nov-11 16:56N 41°12' W 072°12'6 2.9
2017-Nov-11 14:50N 41°16' W 072°06'514.4
2017-Nov-11 14:28N 41°12' W 072°11'3 2.3
2017-Nov-11 13:11N 41°09' W 072°13'211.9
2017-Nov-11 13:00N 41°12' W 072°12'712.1
2017-Nov-11 12:26N 41°17' W 072°06'2 0.2
2017-Nov-11 00:40N 41°15' W 072°08'214.7
2017-Nov-11 00:30N 41°13' W 072°10'5 3.9
2017-Nov-10 23:18N 41°09' W 072°13'310.3
2017-Nov-10 22:59N 41°13' W 072°12'3 0.7
2017-Nov-10 19:08N 41°11' W 072°14'414.3
2017-Nov-10 18:51N 41°13' W 072°10'4 2.2
2017-Nov-10 16:55N 41°17' W 072°07'8 5.3
2017-Nov-10 15:20N 41°10' W 072°13'410.6
2017-Nov-10 14:56N 41°13' W 072°10'3 1.5
2017-Nov-10 12:43N 41°15' W 072°07'314.6
2017-Nov-10 12:30N 41°13' W 072°10'4 0.3
2017-Nov-10 01:06N 41°11' W 072°13'311.6
2017-Nov-10 00:51N 41°13' W 072°11'5 2.4
2017-Nov-09 22:49N 41°16' W 072°06'514.9
2017-Nov-09 22:30N 41°13' W 072°11'4 3.0
2017-Nov-09 21:13N 41°10' W 072°13'210.5
2017-Nov-09 20:59N 41°12' W 072°12'4 1.9
2017-Nov-09 18:45N 41°15' W 072°08'6 3.6
2017-Nov-09 17:03N 41°10' W 072°14'112.9
2017-Nov-09 17:00N 41°11' W 072°14'8 3.7
2017-Nov-09 14:51N 41°17' W 072°06'612.9
2017-Nov-09 14:23N 41°12' W 072°12'3 2.4
2017-Nov-09 13:11N 41°09' W 072°13'311.2
2017-Nov-09 12:57N 41°12' W 072°12'612.5
2017-Nov-09 12:30N 41°16' W 072°07'  

Dump ship's entire track history